sensor_id;sensor_type;location;lat;lon;timestamp;P1;durP1;ratioP1;P2;durP2;ratioP2
68718;SDS011;55696;52.138;5.444;2023-04-26T00:01:56;9.98;;;3.10;;
68718;SDS011;55696;52.138;5.444;2023-04-26T00:04:23;9.35;;;3.03;;
68718;SDS011;55696;52.138;5.444;2023-04-26T00:06:51;6.20;;;2.87;;
68718;SDS011;55696;52.138;5.444;2023-04-26T00:09:17;7.38;;;2.80;;
68718;SDS011;55696;52.138;5.444;2023-04-26T00:11:44;13.48;;;4.00;;
68718;SDS011;55696;52.138;5.444;2023-04-26T00:14:11;7.93;;;3.40;;
68718;SDS011;55696;52.138;5.444;2023-04-26T00:16:39;9.73;;;3.35;;
68718;SDS011;55696;52.138;5.444;2023-04-26T00:19:05;8.87;;;3.17;;
68718;SDS011;55696;52.138;5.444;2023-04-26T00:21:32;12.30;;;3.40;;
68718;SDS011;55696;52.138;5.444;2023-04-26T00:23:59;8.65;;;3.28;;
68718;SDS011;55696;52.138;5.444;2023-04-26T00:26:26;10.30;;;3.58;;
68718;SDS011;55696;52.138;5.444;2023-04-26T00:28:52;10.68;;;3.22;;
68718;SDS011;55696;52.138;5.444;2023-04-26T00:31:20;10.90;;;3.40;;
68718;SDS011;55696;52.138;5.444;2023-04-26T00:33:47;9.88;;;3.72;;
68718;SDS011;55696;52.138;5.444;2023-04-26T00:36:13;8.57;;;3.50;;
68718;SDS011;55696;52.138;5.444;2023-04-26T00:38:44;11.70;;;3.30;;
68718;SDS011;55696;52.138;5.444;2023-04-26T00:41:12;10.10;;;3.63;;
68718;SDS011;55696;52.138;5.444;2023-04-26T00:43:39;13.87;;;4.00;;
68718;SDS011;55696;52.138;5.444;2023-04-26T00:46:07;10.52;;;3.13;;
68718;SDS011;55696;52.138;5.444;2023-04-26T00:48:35;7.57;;;3.30;;
68718;SDS011;55696;52.138;5.444;2023-04-26T00:51:03;9.57;;;3.28;;
68718;SDS011;55696;52.138;5.444;2023-04-26T00:53:31;8.90;;;3.47;;
68718;SDS011;55696;52.138;5.444;2023-04-26T00:55:59;12.97;;;3.50;;
68718;SDS011;55696;52.138;5.444;2023-04-26T00:58:26;11.73;;;3.47;;
68718;SDS011;55696;52.138;5.444;2023-04-26T01:00:54;10.52;;;3.33;;
68718;SDS011;55696;52.138;5.444;2023-04-26T01:03:21;11.15;;;3.10;;
68718;SDS011;55696;52.138;5.444;2023-04-26T01:05:48;5.65;;;2.92;;
68718;SDS011;55696;52.138;5.444;2023-04-26T01:08:15;12.20;;;4.00;;
68718;SDS011;55696;52.138;5.444;2023-04-26T01:10:46;10.88;;;3.17;;
68718;SDS011;55696;52.138;5.444;2023-04-26T01:13:13;8.20;;;3.50;;
68718;SDS011;55696;52.138;5.444;2023-04-26T01:15:44;7.40;;;2.90;;
68718;SDS011;55696;52.138;5.444;2023-04-26T01:18:12;9.38;;;3.60;;
68718;SDS011;55696;52.138;5.444;2023-04-26T01:20:40;15.10;;;3.57;;
68718;SDS011;55696;52.138;5.444;2023-04-26T01:23:08;10.40;;;3.33;;
68718;SDS011;55696;52.138;5.444;2023-04-26T01:25:37;11.18;;;3.92;;
68718;SDS011;55696;52.138;5.444;2023-04-26T01:28:04;7.72;;;3.20;;
68718;SDS011;55696;52.138;5.444;2023-04-26T01:30:31;11.65;;;3.58;;
68718;SDS011;55696;52.138;5.444;2023-04-26T01:33:01;8.73;;;3.57;;
68718;SDS011;55696;52.138;5.444;2023-04-26T01:35:28;7.57;;;3.67;;
68718;SDS011;55696;52.138;5.444;2023-04-26T01:37:55;8.48;;;4.00;;
68718;SDS011;55696;52.138;5.444;2023-04-26T01:40:21;9.30;;;3.50;;
68718;SDS011;55696;52.138;5.444;2023-04-26T01:42:48;6.25;;;3.22;;
68718;SDS011;55696;52.138;5.444;2023-04-26T01:45:15;8.70;;;4.03;;
68718;SDS011;55696;52.138;5.444;2023-04-26T01:48:01;11.43;;;3.20;;
68718;SDS011;55696;52.138;5.444;2023-04-26T01:50:30;7.72;;;3.33;;
68718;SDS011;55696;52.138;5.444;2023-04-26T01:52:57;8.85;;;3.63;;
68718;SDS011;55696;52.138;5.444;2023-04-26T01:55:24;5.65;;;3.30;;
68718;SDS011;55696;52.138;5.444;2023-04-26T01:57:50;7.07;;;3.23;;
68718;SDS011;55696;52.138;5.444;2023-04-26T02:00:17;8.82;;;3.22;;
68718;SDS011;55696;52.138;5.444;2023-04-26T02:02:47;11.88;;;3.70;;
68718;SDS011;55696;52.138;5.444;2023-04-26T02:05:14;17.30;;;3.78;;
68718;SDS011;55696;52.138;5.444;2023-04-26T02:07:41;9.90;;;3.22;;
68718;SDS011;55696;52.138;5.444;2023-04-26T02:10:08;9.47;;;3.40;;
68718;SDS011;55696;52.138;5.444;2023-04-26T02:12:35;7.05;;;3.42;;
68718;SDS011;55696;52.138;5.444;2023-04-26T02:15:02;8.50;;;3.75;;
68718;SDS011;55696;52.138;5.444;2023-04-26T02:17:29;10.15;;;3.92;;
68718;SDS011;55696;52.138;5.444;2023-04-26T02:19:57;10.90;;;3.53;;
68718;SDS011;55696;52.138;5.444;2023-04-26T02:22:23;12.48;;;3.30;;
68718;SDS011;55696;52.138;5.444;2023-04-26T02:24:50;10.07;;;3.83;;
68718;SDS011;55696;52.138;5.444;2023-04-26T02:27:18;9.65;;;3.97;;
68718;SDS011;55696;52.138;5.444;2023-04-26T02:29:45;8.00;;;4.05;;
68718;SDS011;55696;52.138;5.444;2023-04-26T02:32:12;11.38;;;4.00;;
68718;SDS011;55696;52.138;5.444;2023-04-26T02:34:39;11.65;;;3.78;;
68718;SDS011;55696;52.138;5.444;2023-04-26T02:37:07;14.48;;;4.53;;
68718;SDS011;55696;52.138;5.444;2023-04-26T02:39:34;9.15;;;3.80;;
68718;SDS011;55696;52.138;5.444;2023-04-26T02:42:01;7.55;;;3.67;;
68718;SDS011;55696;52.138;5.444;2023-04-26T02:44:28;12.35;;;3.97;;
68718;SDS011;55696;52.138;5.444;2023-04-26T02:46:56;11.40;;;4.15;;
68718;SDS011;55696;52.138;5.444;2023-04-26T02:49:23;13.20;;;4.53;;
68718;SDS011;55696;52.138;5.444;2023-04-26T02:51:50;9.38;;;4.47;;
68718;SDS011;55696;52.138;5.444;2023-04-26T02:54:17;11.43;;;4.85;;
68718;SDS011;55696;52.138;5.444;2023-04-26T02:56:44;15.27;;;4.57;;
68718;SDS011;55696;52.138;5.444;2023-04-26T02:59:11;12.97;;;4.57;;
68718;SDS011;55696;52.138;5.444;2023-04-26T03:01:37;8.60;;;4.45;;
68718;SDS011;55696;52.138;5.444;2023-04-26T03:04:05;11.23;;;4.68;;
68718;SDS011;55696;52.138;5.444;2023-04-26T03:06:33;10.45;;;4.72;;
68718;SDS011;55696;52.138;5.444;2023-04-26T03:09:00;10.35;;;4.65;;
68718;SDS011;55696;52.138;5.444;2023-04-26T03:11:27;13.50;;;4.97;;
68718;SDS011;55696;52.138;5.444;2023-04-26T03:13:55;16.40;;;5.03;;
68718;SDS011;55696;52.138;5.444;2023-04-26T03:16:22;11.05;;;4.78;;
68718;SDS011;55696;52.138;5.444;2023-04-26T03:18:49;10.90;;;4.68;;
68718;SDS011;55696;52.138;5.444;2023-04-26T03:21:16;12.73;;;4.63;;
68718;SDS011;55696;52.138;5.444;2023-04-26T03:23:43;10.77;;;4.45;;
68718;SDS011;55696;52.138;5.444;2023-04-26T03:26:11;9.95;;;4.32;;
68718;SDS011;55696;52.138;5.444;2023-04-26T03:28:38;8.75;;;4.32;;
68718;SDS011;55696;52.138;5.444;2023-04-26T03:31:06;12.70;;;5.27;;
68718;SDS011;55696;52.138;5.444;2023-04-26T03:33:33;13.63;;;4.28;;
68718;SDS011;55696;52.138;5.444;2023-04-26T03:36:00;10.48;;;4.55;;
68718;SDS011;55696;52.138;5.444;2023-04-26T03:38:27;11.70;;;4.88;;
68718;SDS011;55696;52.138;5.444;2023-04-26T03:40:53;11.25;;;4.93;;
68718;SDS011;55696;52.138;5.444;2023-04-26T03:43:21;17.48;;;5.13;;
68718;SDS011;55696;52.138;5.444;2023-04-26T03:45:48;13.80;;;5.20;;
68718;SDS011;55696;52.138;5.444;2023-04-26T03:48:15;11.77;;;4.70;;
68718;SDS011;55696;52.138;5.444;2023-04-26T03:50:43;10.23;;;4.95;;
68718;SDS011;55696;52.138;5.444;2023-04-26T03:53:11;12.67;;;5.77;;
68718;SDS011;55696;52.138;5.444;2023-04-26T03:55:39;12.38;;;4.93;;
68718;SDS011;55696;52.138;5.444;2023-04-26T03:58:07;12.93;;;6.25;;
68718;SDS011;55696;52.138;5.444;2023-04-26T04:00:37;12.73;;;5.38;;
68718;SDS011;55696;52.138;5.444;2023-04-26T04:03:05;20.60;;;7.23;;
68718;SDS011;55696;52.138;5.444;2023-04-26T04:05:33;13.82;;;5.47;;
68718;SDS011;55696;52.138;5.444;2023-04-26T04:08:00;17.13;;;5.60;;
68718;SDS011;55696;52.138;5.444;2023-04-26T04:10:27;16.23;;;5.90;;
68718;SDS011;55696;52.138;5.444;2023-04-26T04:12:54;13.97;;;5.97;;
68718;SDS011;55696;52.138;5.444;2023-04-26T04:15:21;13.32;;;6.68;;
68718;SDS011;55696;52.138;5.444;2023-04-26T04:17:48;15.32;;;6.35;;
68718;SDS011;55696;52.138;5.444;2023-04-26T04:20:15;11.18;;;5.60;;
68718;SDS011;55696;52.138;5.444;2023-04-26T04:22:42;13.30;;;5.83;;
68718;SDS011;55696;52.138;5.444;2023-04-26T04:25:09;16.13;;;6.00;;
68718;SDS011;55696;52.138;5.444;2023-04-26T04:27:37;13.15;;;5.25;;
68718;SDS011;55696;52.138;5.444;2023-04-26T04:30:04;11.75;;;4.90;;
68718;SDS011;55696;52.138;5.444;2023-04-26T04:32:34;14.87;;;5.67;;
68718;SDS011;55696;52.138;5.444;2023-04-26T04:35:02;11.73;;;6.28;;
68718;SDS011;55696;52.138;5.444;2023-04-26T04:37:30;17.40;;;5.97;;
68718;SDS011;55696;52.138;5.444;2023-04-26T04:40:00;12.45;;;5.97;;
68718;SDS011;55696;52.138;5.444;2023-04-26T04:42:29;12.93;;;5.85;;
68718;SDS011;55696;52.138;5.444;2023-04-26T04:44:57;13.02;;;5.80;;
68718;SDS011;55696;52.138;5.444;2023-04-26T04:47:26;16.23;;;6.13;;
68718;SDS011;55696;52.138;5.444;2023-04-26T04:49:52;14.57;;;6.50;;
68718;SDS011;55696;52.138;5.444;2023-04-26T04:52:19;14.75;;;6.28;;
68718;SDS011;55696;52.138;5.444;2023-04-26T04:54:47;20.27;;;6.50;;
68718;SDS011;55696;52.138;5.444;2023-04-26T04:57:14;14.60;;;5.95;;
68718;SDS011;55696;52.138;5.444;2023-04-26T04:59:43;16.02;;;6.50;;
68718;SDS011;55696;52.138;5.444;2023-04-26T05:02:09;14.02;;;5.85;;
68718;SDS011;55696;52.138;5.444;2023-04-26T05:04:36;13.57;;;6.10;;
68718;SDS011;55696;52.138;5.444;2023-04-26T05:07:04;13.27;;;5.55;;
68718;SDS011;55696;52.138;5.444;2023-04-26T05:09:32;13.00;;;5.60;;
68718;SDS011;55696;52.138;5.444;2023-04-26T05:12:00;13.10;;;5.95;;
68718;SDS011;55696;52.138;5.444;2023-04-26T05:14:28;16.13;;;6.23;;
68718;SDS011;55696;52.138;5.444;2023-04-26T05:16:56;20.77;;;5.90;;
68718;SDS011;55696;52.138;5.444;2023-04-26T05:19:24;15.10;;;6.43;;
68718;SDS011;55696;52.138;5.444;2023-04-26T05:21:51;15.10;;;5.72;;
68718;SDS011;55696;52.138;5.444;2023-04-26T05:24:18;11.50;;;5.20;;
68718;SDS011;55696;52.138;5.444;2023-04-26T05:26:46;14.57;;;5.43;;
68718;SDS011;55696;52.138;5.444;2023-04-26T05:29:31;12.93;;;5.05;;
68718;SDS011;55696;52.138;5.444;2023-04-26T05:32:04;13.10;;;5.65;;
68718;SDS011;55696;52.138;5.444;2023-04-26T05:34:51;15.57;;;5.90;;
68718;SDS011;55696;52.138;5.444;2023-04-26T05:37:18;9.57;;;4.85;;
68718;SDS011;55696;52.138;5.444;2023-04-26T05:39:44;11.98;;;5.47;;
68718;SDS011;55696;52.138;5.444;2023-04-26T05:42:11;11.02;;;5.40;;
68718;SDS011;55696;52.138;5.444;2023-04-26T05:44:39;11.82;;;5.35;;
68718;SDS011;55696;52.138;5.444;2023-04-26T05:47:06;13.70;;;5.13;;
68718;SDS011;55696;52.138;5.444;2023-04-26T05:49:33;11.80;;;5.32;;
68718;SDS011;55696;52.138;5.444;2023-04-26T05:52:00;9.40;;;4.80;;
68718;SDS011;55696;52.138;5.444;2023-04-26T05:54:29;11.95;;;5.10;;
68718;SDS011;55696;52.138;5.444;2023-04-26T05:56:56;13.40;;;4.90;;
68718;SDS011;55696;52.138;5.444;2023-04-26T05:59:26;8.38;;;3.90;;
68718;SDS011;55696;52.138;5.444;2023-04-26T06:01:57;8.30;;;3.88;;
68718;SDS011;55696;52.138;5.444;2023-04-26T06:04:24;15.38;;;4.97;;
68718;SDS011;55696;52.138;5.444;2023-04-26T06:07:17;11.75;;;4.93;;
68718;SDS011;55696;52.138;5.444;2023-04-26T06:09:45;16.90;;;4.40;;
68718;SDS011;55696;52.138;5.444;2023-04-26T06:12:13;10.68;;;4.30;;
68718;SDS011;55696;52.138;5.444;2023-04-26T06:14:42;10.63;;;4.13;;
68718;SDS011;55696;52.138;5.444;2023-04-26T06:17:14;9.27;;;3.53;;
68718;SDS011;55696;52.138;5.444;2023-04-26T06:19:42;10.73;;;4.13;;
68718;SDS011;55696;52.138;5.444;2023-04-26T06:22:09;13.17;;;5.00;;
68718;SDS011;55696;52.138;5.444;2023-04-26T06:24:37;12.88;;;3.90;;
68718;SDS011;55696;52.138;5.444;2023-04-26T06:27:03;9.68;;;3.92;;
68718;SDS011;55696;52.138;5.444;2023-04-26T06:29:33;12.73;;;3.85;;
68718;SDS011;55696;52.138;5.444;2023-04-26T06:32:00;12.68;;;4.45;;
68718;SDS011;55696;52.138;5.444;2023-04-26T06:34:27;10.87;;;4.00;;
68718;SDS011;55696;52.138;5.444;2023-04-26T06:36:55;7.35;;;3.67;;
68718;SDS011;55696;52.138;5.444;2023-04-26T06:39:23;8.00;;;4.13;;
68718;SDS011;55696;52.138;5.444;2023-04-26T06:41:50;13.23;;;3.50;;
68718;SDS011;55696;52.138;5.444;2023-04-26T06:44:25;10.73;;;3.80;;
68718;SDS011;55696;52.138;5.444;2023-04-26T06:46:59;9.57;;;3.90;;
68718;SDS011;55696;52.138;5.444;2023-04-26T06:49:26;11.50;;;3.80;;
68718;SDS011;55696;52.138;5.444;2023-04-26T06:51:53;6.13;;;2.78;;
68718;SDS011;55696;52.138;5.444;2023-04-26T06:54:20;12.05;;;2.70;;
68718;SDS011;55696;52.138;5.444;2023-04-26T06:56:46;10.52;;;3.00;;
68718;SDS011;55696;52.138;5.444;2023-04-26T06:59:13;6.40;;;3.07;;
68718;SDS011;55696;52.138;5.444;2023-04-26T07:01:40;12.95;;;3.00;;
68718;SDS011;55696;52.138;5.444;2023-04-26T07:04:07;8.13;;;2.70;;
68718;SDS011;55696;52.138;5.444;2023-04-26T07:06:36;8.18;;;2.83;;
68718;SDS011;55696;52.138;5.444;2023-04-26T07:09:04;7.47;;;2.60;;
68718;SDS011;55696;52.138;5.444;2023-04-26T07:11:30;9.53;;;2.90;;
68718;SDS011;55696;52.138;5.444;2023-04-26T07:13:57;7.97;;;2.38;;
68718;SDS011;55696;52.138;5.444;2023-04-26T07:16:25;5.22;;;2.30;;
68718;SDS011;55696;52.138;5.444;2023-04-26T07:18:52;7.03;;;2.42;;
68718;SDS011;55696;52.138;5.444;2023-04-26T07:21:23;6.53;;;2.35;;
68718;SDS011;55696;52.138;5.444;2023-04-26T07:23:55;9.60;;;2.63;;
68718;SDS011;55696;52.138;5.444;2023-04-26T07:26:22;9.25;;;2.80;;
68718;SDS011;55696;52.138;5.444;2023-04-26T07:28:50;6.60;;;3.00;;
68718;SDS011;55696;52.138;5.444;2023-04-26T07:31:18;5.97;;;2.65;;
68718;SDS011;55696;52.138;5.444;2023-04-26T07:33:45;7.45;;;2.45;;
68718;SDS011;55696;52.138;5.444;2023-04-26T07:36:12;5.20;;;2.30;;
68718;SDS011;55696;52.138;5.444;2023-04-26T07:38:38;7.72;;;1.98;;
68718;SDS011;55696;52.138;5.444;2023-04-26T07:41:05;6.35;;;2.20;;
68718;SDS011;55696;52.138;5.444;2023-04-26T07:43:32;5.45;;;1.55;;
68718;SDS011;55696;52.138;5.444;2023-04-26T07:46:02;5.85;;;2.10;;
68718;SDS011;55696;52.138;5.444;2023-04-26T07:48:28;7.13;;;2.33;;
68718;SDS011;55696;52.138;5.444;2023-04-26T07:50:55;6.20;;;1.67;;
68718;SDS011;55696;52.138;5.444;2023-04-26T07:53:22;6.13;;;1.98;;
68718;SDS011;55696;52.138;5.444;2023-04-26T07:55:49;5.68;;;2.30;;
68718;SDS011;55696;52.138;5.444;2023-04-26T07:58:19;4.32;;;1.92;;
68718;SDS011;55696;52.138;5.444;2023-04-26T08:00:46;6.43;;;2.07;;
68718;SDS011;55696;52.138;5.444;2023-04-26T08:03:13;2.88;;;1.20;;
68718;SDS011;55696;52.138;5.444;2023-04-26T08:05:42;4.82;;;1.40;;
68718;SDS011;55696;52.138;5.444;2023-04-26T08:08:09;5.43;;;1.50;;
68718;SDS011;55696;52.138;5.444;2023-04-26T08:10:39;3.05;;;1.20;;
68718;SDS011;55696;52.138;5.444;2023-04-26T08:13:07;4.97;;;1.47;;
68718;SDS011;55696;52.138;5.444;2023-04-26T08:15:34;5.20;;;1.58;;
68718;SDS011;55696;52.138;5.444;2023-04-26T08:18:00;5.47;;;1.83;;
68718;SDS011;55696;52.138;5.444;2023-04-26T08:20:27;6.40;;;1.80;;
68718;SDS011;55696;52.138;5.444;2023-04-26T08:22:54;4.15;;;1.50;;
68718;SDS011;55696;52.138;5.444;2023-04-26T08:25:22;3.47;;;1.27;;
68718;SDS011;55696;52.138;5.444;2023-04-26T08:27:49;4.45;;;1.27;;
68718;SDS011;55696;52.138;5.444;2023-04-26T08:30:16;3.10;;;1.23;;
68718;SDS011;55696;52.138;5.444;2023-04-26T08:32:44;4.95;;;1.52;;
68718;SDS011;55696;52.138;5.444;2023-04-26T08:35:11;8.25;;;1.70;;
68718;SDS011;55696;52.138;5.444;2023-04-26T08:37:38;5.30;;;1.70;;
68718;SDS011;55696;52.138;5.444;2023-04-26T08:40:05;6.13;;;1.65;;
68718;SDS011;55696;52.138;5.444;2023-04-26T08:42:41;4.45;;;1.45;;
68718;SDS011;55696;52.138;5.444;2023-04-26T08:45:09;5.80;;;1.80;;
68718;SDS011;55696;52.138;5.444;2023-04-26T08:47:38;3.20;;;1.50;;
68718;SDS011;55696;52.138;5.444;2023-04-26T08:50:10;6.33;;;1.60;;
68718;SDS011;55696;52.138;5.444;2023-04-26T08:52:40;3.97;;;1.60;;
68718;SDS011;55696;52.138;5.444;2023-04-26T08:55:08;8.70;;;2.10;;
68718;SDS011;55696;52.138;5.444;2023-04-26T08:57:35;6.60;;;1.83;;
68718;SDS011;55696;52.138;5.444;2023-04-26T09:00:03;6.80;;;2.03;;
68718;SDS011;55696;52.138;5.444;2023-04-26T09:02:50;7.40;;;2.07;;
68718;SDS011;55696;52.138;5.444;2023-04-26T09:05:19;5.10;;;1.70;;
68718;SDS011;55696;52.138;5.444;2023-04-26T09:07:49;4.88;;;1.58;;
68718;SDS011;55696;52.138;5.444;2023-04-26T09:10:19;3.97;;;1.40;;
68718;SDS011;55696;52.138;5.444;2023-04-26T09:12:51;5.75;;;1.27;;
68718;SDS011;55696;52.138;5.444;2023-04-26T09:15:22;5.07;;;1.40;;
68718;SDS011;55696;52.138;5.444;2023-04-26T09:17:49;5.55;;;1.65;;
68718;SDS011;55696;52.138;5.444;2023-04-26T09:20:24;3.67;;;1.90;;
68718;SDS011;55696;52.138;5.444;2023-04-26T09:22:53;6.03;;;1.40;;
68718;SDS011;55696;52.138;5.444;2023-04-26T09:25:30;4.53;;;1.60;;
68718;SDS011;55696;52.138;5.444;2023-04-26T09:27:58;2.73;;;1.47;;
68718;SDS011;55696;52.138;5.444;2023-04-26T09:30:25;5.82;;;1.65;;
68718;SDS011;55696;52.138;5.444;2023-04-26T09:32:57;4.60;;;1.40;;
68718;SDS011;55696;52.138;5.444;2023-04-26T09:38:06;4.43;;;1.35;;
68718;SDS011;55696;52.138;5.444;2023-04-26T09:40:39;4.33;;;1.60;;
68718;SDS011;55696;52.138;5.444;2023-04-26T09:43:15;3.97;;;1.50;;
68718;SDS011;55696;52.138;5.444;2023-04-26T09:45:55;7.95;;;1.75;;
68718;SDS011;55696;52.138;5.444;2023-04-26T09:50:52;3.65;;;1.50;;
68718;SDS011;55696;52.138;5.444;2023-04-26T09:53:23;3.87;;;1.50;;
68718;SDS011;55696;52.138;5.444;2023-04-26T09:58:40;6.07;;;1.48;;
68718;SDS011;55696;52.138;5.444;2023-04-26T10:01:23;2.53;;;1.27;;
68718;SDS011;55696;52.138;5.444;2023-04-26T10:03:52;4.50;;;1.40;;
68718;SDS011;55696;52.138;5.444;2023-04-26T10:06:19;5.07;;;1.60;;
68718;SDS011;55696;52.138;5.444;2023-04-26T10:08:46;3.45;;;1.60;;
68718;SDS011;55696;52.138;5.444;2023-04-26T10:11:13;4.05;;;1.42;;
68718;SDS011;55696;52.138;5.444;2023-04-26T10:13:40;2.45;;;1.25;;
68718;SDS011;55696;52.138;5.444;2023-04-26T10:16:08;4.53;;;1.58;;
68718;SDS011;55696;52.138;5.444;2023-04-26T10:18:36;3.83;;;1.40;;
68718;SDS011;55696;52.138;5.444;2023-04-26T10:21:10;6.28;;;1.60;;
68718;SDS011;55696;52.138;5.444;2023-04-26T10:23:42;4.45;;;1.60;;
68718;SDS011;55696;52.138;5.444;2023-04-26T10:29:19;7.38;;;2.03;;
68718;SDS011;55696;52.138;5.444;2023-04-26T10:34:32;3.17;;;1.65;;
68718;SDS011;55696;52.138;5.444;2023-04-26T10:37:10;4.43;;;1.67;;
68718;SDS011;55696;52.138;5.444;2023-04-26T10:39:42;4.10;;;1.20;;
68718;SDS011;55696;52.138;5.444;2023-04-26T10:44:52;4.20;;;1.53;;
68718;SDS011;55696;52.138;5.444;2023-04-26T10:47:33;7.13;;;1.63;;
68718;SDS011;55696;52.138;5.444;2023-04-26T10:50:09;8.65;;;1.60;;
68718;SDS011;55696;52.138;5.444;2023-04-26T10:53:22;4.03;;;1.73;;
68718;SDS011;55696;52.138;5.444;2023-04-26T10:55:47;5.53;;;1.65;;
68718;SDS011;55696;52.138;5.444;2023-04-26T11:01:06;3.17;;;1.60;;
68718;SDS011;55696;52.138;5.444;2023-04-26T11:03:59;3.58;;;1.45;;
68718;SDS011;55696;52.138;5.444;2023-04-26T11:06:50;3.40;;;1.50;;
68718;SDS011;55696;52.138;5.444;2023-04-26T11:09:36;7.05;;;1.52;;
68718;SDS011;55696;52.138;5.444;2023-04-26T11:12:05;4.23;;;1.70;;
68718;SDS011;55696;52.138;5.444;2023-04-26T11:14:36;5.82;;;2.35;;
68718;SDS011;55696;52.138;5.444;2023-04-26T11:17:06;3.25;;;1.55;;
68718;SDS011;55696;52.138;5.444;2023-04-26T11:19:37;5.40;;;1.70;;
68718;SDS011;55696;52.138;5.444;2023-04-26T11:22:05;6.20;;;1.55;;
68718;SDS011;55696;52.138;5.444;2023-04-26T11:24:33;2.93;;;1.20;;
68718;SDS011;55696;52.138;5.444;2023-04-26T11:27:12;7.22;;;2.00;;
68718;SDS011;55696;52.138;5.444;2023-04-26T11:29:39;5.13;;;1.73;;
68718;SDS011;55696;52.138;5.444;2023-04-26T11:32:05;6.45;;;1.52;;
68718;SDS011;55696;52.138;5.444;2023-04-26T11:37:02;7.17;;;1.57;;
68718;SDS011;55696;52.138;5.444;2023-04-26T11:39:30;5.85;;;1.60;;
68718;SDS011;55696;52.138;5.444;2023-04-26T11:44:32;3.90;;;1.52;;
68718;SDS011;55696;52.138;5.444;2023-04-26T11:47:05;6.03;;;1.83;;
68718;SDS011;55696;52.138;5.444;2023-04-26T11:49:36;5.83;;;1.40;;
68718;SDS011;55696;52.138;5.444;2023-04-26T11:52:04;3.17;;;1.70;;
68718;SDS011;55696;52.138;5.444;2023-04-26T11:54:32;6.43;;;1.88;;
68718;SDS011;55696;52.138;5.444;2023-04-26T11:57:00;3.25;;;1.50;;
68718;SDS011;55696;52.138;5.444;2023-04-26T11:59:43;5.03;;;1.48;;
68718;SDS011;55696;52.138;5.444;2023-04-26T12:02:11;5.10;;;2.17;;
68718;SDS011;55696;52.138;5.444;2023-04-26T12:04:38;6.28;;;3.10;;
68718;SDS011;55696;52.138;5.444;2023-04-26T12:07:06;4.40;;;1.83;;
68718;SDS011;55696;52.138;5.444;2023-04-26T12:09:33;7.82;;;1.50;;
68718;SDS011;55696;52.138;5.444;2023-04-26T12:12:02;4.28;;;1.63;;
68718;SDS011;55696;52.138;5.444;2023-04-26T12:14:31;6.83;;;2.00;;
68718;SDS011;55696;52.138;5.444;2023-04-26T12:16:58;4.35;;;1.67;;
68718;SDS011;55696;52.138;5.444;2023-04-26T12:19:27;4.57;;;1.30;;
68718;SDS011;55696;52.138;5.444;2023-04-26T12:21:58;4.85;;;1.70;;
68718;SDS011;55696;52.138;5.444;2023-04-26T12:24:25;4.07;;;1.83;;
68718;SDS011;55696;52.138;5.444;2023-04-26T12:27:05;6.30;;;1.90;;
68718;SDS011;55696;52.138;5.444;2023-04-26T12:29:33;6.05;;;2.03;;
68718;SDS011;55696;52.138;5.444;2023-04-26T12:32:00;6.00;;;1.83;;
68718;SDS011;55696;52.138;5.444;2023-04-26T12:34:28;3.90;;;1.58;;
68718;SDS011;55696;52.138;5.444;2023-04-26T12:36:55;7.65;;;2.05;;
68718;SDS011;55696;52.138;5.444;2023-04-26T12:39:22;3.43;;;1.30;;
68718;SDS011;55696;52.138;5.444;2023-04-26T12:41:48;3.42;;;1.50;;
68718;SDS011;55696;52.138;5.444;2023-04-26T12:44:15;5.18;;;1.48;;
68718;SDS011;55696;52.138;5.444;2023-04-26T12:46:44;2.53;;;1.17;;
68718;SDS011;55696;52.138;5.444;2023-04-26T12:49:11;6.38;;;1.75;;
68718;SDS011;55696;52.138;5.444;2023-04-26T12:51:38;3.13;;;1.80;;
68718;SDS011;55696;52.138;5.444;2023-04-26T12:54:05;4.15;;;1.60;;
68718;SDS011;55696;52.138;5.444;2023-04-26T12:56:32;3.60;;;1.90;;
68718;SDS011;55696;52.138;5.444;2023-04-26T12:59:03;5.22;;;2.25;;
68718;SDS011;55696;52.138;5.444;2023-04-26T13:01:29;5.60;;;1.80;;
68718;SDS011;55696;52.138;5.444;2023-04-26T13:03:57;5.73;;;2.33;;
68718;SDS011;55696;52.138;5.444;2023-04-26T13:06:26;3.65;;;1.90;;
68718;SDS011;55696;52.138;5.444;2023-04-26T13:08:53;4.75;;;1.77;;
68718;SDS011;55696;52.138;5.444;2023-04-26T13:11:20;5.38;;;1.50;;
68718;SDS011;55696;52.138;5.444;2023-04-26T13:13:47;4.28;;;1.83;;
68718;SDS011;55696;52.138;5.444;2023-04-26T13:16:14;4.33;;;1.80;;
68718;SDS011;55696;52.138;5.444;2023-04-26T13:18:41;4.35;;;1.85;;
68718;SDS011;55696;52.138;5.444;2023-04-26T13:21:08;4.43;;;1.70;;
68718;SDS011;55696;52.138;5.444;2023-04-26T13:23:35;2.90;;;1.52;;
68718;SDS011;55696;52.138;5.444;2023-04-26T13:26:01;6.50;;;2.17;;
68718;SDS011;55696;52.138;5.444;2023-04-26T13:28:28;5.67;;;2.30;;
68718;SDS011;55696;52.138;5.444;2023-04-26T13:30:55;4.57;;;2.03;;
68718;SDS011;55696;52.138;5.444;2023-04-26T13:33:22;6.82;;;1.92;;
68718;SDS011;55696;52.138;5.444;2023-04-26T13:35:49;6.28;;;1.77;;
68718;SDS011;55696;52.138;5.444;2023-04-26T13:38:16;4.20;;;2.22;;
68718;SDS011;55696;52.138;5.444;2023-04-26T13:40:43;7.03;;;1.70;;
68718;SDS011;55696;52.138;5.444;2023-04-26T13:43:10;5.32;;;1.65;;
68718;SDS011;55696;52.138;5.444;2023-04-26T13:45:37;5.13;;;2.20;;
68718;SDS011;55696;52.138;5.444;2023-04-26T13:48:04;8.90;;;1.80;;
68718;SDS011;55696;52.138;5.444;2023-04-26T13:50:30;7.05;;;2.17;;
68718;SDS011;55696;52.138;5.444;2023-04-26T13:52:58;4.93;;;1.67;;
68718;SDS011;55696;52.138;5.444;2023-04-26T13:55:25;4.75;;;2.03;;
68718;SDS011;55696;52.138;5.444;2023-04-26T13:57:51;6.07;;;1.90;;
68718;SDS011;55696;52.138;5.444;2023-04-26T14:00:18;3.60;;;1.70;;
68718;SDS011;55696;52.138;5.444;2023-04-26T14:02:45;6.88;;;2.22;;
68718;SDS011;55696;52.138;5.444;2023-04-26T14:05:13;3.90;;;1.60;;
68718;SDS011;55696;52.138;5.444;2023-04-26T14:07:40;3.90;;;1.55;;
68718;SDS011;55696;52.138;5.444;2023-04-26T14:10:07;10.35;;;1.75;;
68718;SDS011;55696;52.138;5.444;2023-04-26T14:12:34;6.13;;;1.83;;
68718;SDS011;55696;52.138;5.444;2023-04-26T14:15:01;5.03;;;1.80;;
68718;SDS011;55696;52.138;5.444;2023-04-26T14:17:31;6.73;;;1.63;;
68718;SDS011;55696;52.138;5.444;2023-04-26T14:19:58;4.30;;;1.77;;
68718;SDS011;55696;52.138;5.444;2023-04-26T14:22:25;3.28;;;1.80;;
68718;SDS011;55696;52.138;5.444;2023-04-26T14:24:52;4.85;;;1.92;;
68718;SDS011;55696;52.138;5.444;2023-04-26T14:27:19;4.22;;;1.70;;
68718;SDS011;55696;52.138;5.444;2023-04-26T14:29:46;3.77;;;1.60;;
68718;SDS011;55696;52.138;5.444;2023-04-26T14:32:12;3.22;;;1.80;;
68718;SDS011;55696;52.138;5.444;2023-04-26T14:34:39;5.22;;;1.90;;
68718;SDS011;55696;52.138;5.444;2023-04-26T14:37:07;3.97;;;1.50;;
68718;SDS011;55696;52.138;5.444;2023-04-26T14:39:34;5.38;;;1.73;;
68718;SDS011;55696;52.138;5.444;2023-04-26T14:42:01;4.63;;;1.70;;
68718;SDS011;55696;52.138;5.444;2023-04-26T14:44:29;3.92;;;1.50;;
68718;SDS011;55696;52.138;5.444;2023-04-26T14:46:56;4.38;;;1.52;;
68718;SDS011;55696;52.138;5.444;2023-04-26T14:49:22;9.13;;;1.58;;
68718;SDS011;55696;52.138;5.444;2023-04-26T14:51:49;4.30;;;1.75;;
68718;SDS011;55696;52.138;5.444;2023-04-26T14:54:19;4.33;;;1.80;;
68718;SDS011;55696;52.138;5.444;2023-04-26T14:56:46;5.05;;;2.03;;
68718;SDS011;55696;52.138;5.444;2023-04-26T14:59:14;6.20;;;1.70;;
68718;SDS011;55696;52.138;5.444;2023-04-26T15:01:40;2.95;;;1.70;;
68718;SDS011;55696;52.138;5.444;2023-04-26T15:04:07;8.55;;;1.80;;
68718;SDS011;55696;52.138;5.444;2023-04-26T15:06:34;6.80;;;1.90;;
68718;SDS011;55696;52.138;5.444;2023-04-26T15:09:01;2.58;;;1.52;;
68718;SDS011;55696;52.138;5.444;2023-04-26T15:11:29;4.28;;;1.58;;
68718;SDS011;55696;52.138;5.444;2023-04-26T15:13:56;5.55;;;1.70;;
68718;SDS011;55696;52.138;5.444;2023-04-26T15:16:23;4.25;;;1.60;;